sensor_id;sensor_type;location;lat;lon;timestamp;P1;durP1;ratioP1;P2;durP2;ratioP2
74908;SDS011;63468;52.058;4.824;2023-04-16T00:02:27;11.52;;;4.90;;
74908;SDS011;63468;52.058;4.824;2023-04-16T00:04:52;11.75;;;5.15;;
74908;SDS011;63468;52.058;4.824;2023-04-16T00:07:18;15.63;;;4.90;;
74908;SDS011;63468;52.058;4.824;2023-04-16T00:09:44;12.90;;;4.97;;
74908;SDS011;63468;52.058;4.824;2023-04-16T00:12:10;14.05;;;6.32;;
74908;SDS011;63468;52.058;4.824;2023-04-16T00:14:36;15.50;;;5.85;;
74908;SDS011;63468;52.058;4.824;2023-04-16T00:17:01;15.02;;;6.43;;
74908;SDS011;63468;52.058;4.824;2023-04-16T00:19:26;15.40;;;6.30;;
74908;SDS011;63468;52.058;4.824;2023-04-16T00:21:52;14.50;;;6.60;;
74908;SDS011;63468;52.058;4.824;2023-04-16T00:24:17;14.65;;;6.53;;
74908;SDS011;63468;52.058;4.824;2023-04-16T00:26:42;17.77;;;6.90;;
74908;SDS011;63468;52.058;4.824;2023-04-16T00:29:10;18.83;;;7.18;;
74908;SDS011;63468;52.058;4.824;2023-04-16T00:31:35;14.23;;;6.80;;
74908;SDS011;63468;52.058;4.824;2023-04-16T00:34:01;17.70;;;6.43;;
74908;SDS011;63468;52.058;4.824;2023-04-16T00:36:26;14.93;;;7.40;;
74908;SDS011;63468;52.058;4.824;2023-04-16T00:38:52;14.07;;;6.38;;
74908;SDS011;63468;52.058;4.824;2023-04-16T00:41:18;17.10;;;7.65;;
74908;SDS011;63468;52.058;4.824;2023-04-16T00:43:43;18.20;;;7.30;;
74908;SDS011;63468;52.058;4.824;2023-04-16T00:46:09;14.95;;;6.55;;
74908;SDS011;63468;52.058;4.824;2023-04-16T00:48:37;18.63;;;5.68;;
74908;SDS011;63468;52.058;4.824;2023-04-16T00:51:06;14.07;;;6.60;;
74908;SDS011;63468;52.058;4.824;2023-04-16T00:53:32;13.63;;;6.40;;
74908;SDS011;63468;52.058;4.824;2023-04-16T00:55:58;12.88;;;5.93;;
74908;SDS011;63468;52.058;4.824;2023-04-16T00:58:24;15.68;;;6.28;;
74908;SDS011;63468;52.058;4.824;2023-04-16T01:00:50;13.60;;;6.32;;
74908;SDS011;63468;52.058;4.824;2023-04-16T01:03:15;15.68;;;6.47;;
74908;SDS011;63468;52.058;4.824;2023-04-16T01:05:41;18.63;;;6.35;;
74908;SDS011;63468;52.058;4.824;2023-04-16T01:08:14;13.38;;;6.45;;
74908;SDS011;63468;52.058;4.824;2023-04-16T01:10:43;13.60;;;6.45;;
74908;SDS011;63468;52.058;4.824;2023-04-16T01:13:08;18.73;;;6.10;;
74908;SDS011;63468;52.058;4.824;2023-04-16T01:15:33;14.80;;;5.90;;
74908;SDS011;63468;52.058;4.824;2023-04-16T01:17:59;10.38;;;5.65;;
74908;SDS011;63468;52.058;4.824;2023-04-16T01:20:24;13.20;;;5.95;;
74908;SDS011;63468;52.058;4.824;2023-04-16T01:22:49;13.80;;;4.90;;
74908;SDS011;63468;52.058;4.824;2023-04-16T01:25:15;15.52;;;5.80;;
74908;SDS011;63468;52.058;4.824;2023-04-16T01:27:40;14.18;;;5.30;;
74908;SDS011;63468;52.058;4.824;2023-04-16T01:30:06;14.02;;;5.47;;
74908;SDS011;63468;52.058;4.824;2023-04-16T01:32:31;14.63;;;5.50;;
74908;SDS011;63468;52.058;4.824;2023-04-16T01:34:57;17.65;;;5.32;;
74908;SDS011;63468;52.058;4.824;2023-04-16T01:37:22;14.77;;;6.30;;
74908;SDS011;63468;52.058;4.824;2023-04-16T01:39:47;13.00;;;6.05;;
74908;SDS011;63468;52.058;4.824;2023-04-16T01:42:13;13.77;;;6.03;;
74908;SDS011;63468;52.058;4.824;2023-04-16T01:44:38;11.23;;;6.43;;
74908;SDS011;63468;52.058;4.824;2023-04-16T01:47:03;11.73;;;5.22;;
74908;SDS011;63468;52.058;4.824;2023-04-16T01:49:29;15.77;;;6.60;;
74908;SDS011;63468;52.058;4.824;2023-04-16T01:51:54;16.27;;;6.25;;
74908;SDS011;63468;52.058;4.824;2023-04-16T01:54:20;15.65;;;6.18;;
74908;SDS011;63468;52.058;4.824;2023-04-16T01:56:45;15.35;;;6.80;;
74908;SDS011;63468;52.058;4.824;2023-04-16T01:59:10;14.90;;;7.20;;
74908;SDS011;63468;52.058;4.824;2023-04-16T02:01:36;22.13;;;8.15;;
74908;SDS011;63468;52.058;4.824;2023-04-16T02:04:01;19.45;;;7.35;;
74908;SDS011;63468;52.058;4.824;2023-04-16T02:06:27;21.60;;;7.75;;
74908;SDS011;63468;52.058;4.824;2023-04-16T02:08:52;17.33;;;7.72;;
74908;SDS011;63468;52.058;4.824;2023-04-16T02:11:17;16.67;;;7.72;;
74908;SDS011;63468;52.058;4.824;2023-04-16T02:13:43;15.13;;;8.00;;
74908;SDS011;63468;52.058;4.824;2023-04-16T02:16:08;15.98;;;7.07;;
74908;SDS011;63468;52.058;4.824;2023-04-16T02:18:33;17.15;;;8.68;;
74908;SDS011;63468;52.058;4.824;2023-04-16T02:20:59;17.25;;;8.05;;
74908;SDS011;63468;52.058;4.824;2023-04-16T02:23:24;18.05;;;8.00;;
74908;SDS011;63468;52.058;4.824;2023-04-16T02:25:49;19.42;;;8.73;;
74908;SDS011;63468;52.058;4.824;2023-04-16T02:28:15;21.58;;;8.68;;
74908;SDS011;63468;52.058;4.824;2023-04-16T02:30:41;15.77;;;7.72;;
74908;SDS011;63468;52.058;4.824;2023-04-16T02:33:07;19.75;;;8.60;;
74908;SDS011;63468;52.058;4.824;2023-04-16T02:35:33;14.55;;;8.13;;
74908;SDS011;63468;52.058;4.824;2023-04-16T02:37:59;14.80;;;8.43;;
74908;SDS011;63468;52.058;4.824;2023-04-16T02:40:25;15.88;;;7.40;;
74908;SDS011;63468;52.058;4.824;2023-04-16T02:42:51;14.60;;;7.53;;
74908;SDS011;63468;52.058;4.824;2023-04-16T02:45:17;18.63;;;7.78;;
74908;SDS011;63468;52.058;4.824;2023-04-16T02:47:42;14.70;;;7.50;;
74908;SDS011;63468;52.058;4.824;2023-04-16T02:50:07;16.20;;;8.02;;
74908;SDS011;63468;52.058;4.824;2023-04-16T02:52:33;16.17;;;8.38;;
74908;SDS011;63468;52.058;4.824;2023-04-16T02:54:58;19.52;;;12.18;;
74908;SDS011;63468;52.058;4.824;2023-04-16T02:57:24;25.80;;;9.18;;
74908;SDS011;63468;52.058;4.824;2023-04-16T02:59:49;24.77;;;10.10;;
74908;SDS011;63468;52.058;4.824;2023-04-16T03:02:15;27.63;;;9.85;;
74908;SDS011;63468;52.058;4.824;2023-04-16T03:04:40;24.67;;;9.60;;
74908;SDS011;63468;52.058;4.824;2023-04-16T03:07:06;28.27;;;9.63;;
74908;SDS011;63468;52.058;4.824;2023-04-16T03:09:33;20.25;;;9.00;;
74908;SDS011;63468;52.058;4.824;2023-04-16T03:11:58;30.23;;;10.82;;
74908;SDS011;63468;52.058;4.824;2023-04-16T03:14:23;21.08;;;11.60;;
74908;SDS011;63468;52.058;4.824;2023-04-16T03:16:48;24.63;;;10.85;;
74908;SDS011;63468;52.058;4.824;2023-04-16T03:19:14;25.45;;;9.40;;
74908;SDS011;63468;52.058;4.824;2023-04-16T03:21:39;22.25;;;10.20;;
74908;SDS011;63468;52.058;4.824;2023-04-16T03:24:05;22.33;;;10.13;;
74908;SDS011;63468;52.058;4.824;2023-04-16T03:26:30;20.90;;;9.02;;
74908;SDS011;63468;52.058;4.824;2023-04-16T03:28:55;16.58;;;8.50;;
74908;SDS011;63468;52.058;4.824;2023-04-16T03:31:22;19.45;;;9.23;;
74908;SDS011;63468;52.058;4.824;2023-04-16T03:33:48;20.35;;;8.82;;
74908;SDS011;63468;52.058;4.824;2023-04-16T03:36:13;17.08;;;8.52;;
74908;SDS011;63468;52.058;4.824;2023-04-16T03:38:38;25.73;;;8.82;;
74908;SDS011;63468;52.058;4.824;2023-04-16T03:41:04;16.90;;;8.00;;
74908;SDS011;63468;52.058;4.824;2023-04-16T03:43:29;16.58;;;9.27;;
74908;SDS011;63468;52.058;4.824;2023-04-16T03:45:54;24.77;;;10.48;;
74908;SDS011;63468;52.058;4.824;2023-04-16T03:48:20;17.02;;;8.10;;
74908;SDS011;63468;52.058;4.824;2023-04-16T03:50:45;16.10;;;8.73;;
74908;SDS011;63468;52.058;4.824;2023-04-16T03:53:14;15.80;;;8.55;;
74908;SDS011;63468;52.058;4.824;2023-04-16T03:55:40;22.73;;;9.25;;
74908;SDS011;63468;52.058;4.824;2023-04-16T03:58:05;16.50;;;9.05;;
74908;SDS011;63468;52.058;4.824;2023-04-16T04:00:31;15.10;;;9.00;;
74908;SDS011;63468;52.058;4.824;2023-04-16T04:02:56;20.30;;;9.07;;
74908;SDS011;63468;52.058;4.824;2023-04-16T04:05:21;14.98;;;8.77;;
74908;SDS011;63468;52.058;4.824;2023-04-16T04:07:47;18.42;;;8.82;;
74908;SDS011;63468;52.058;4.824;2023-04-16T04:10:12;16.20;;;8.95;;
74908;SDS011;63468;52.058;4.824;2023-04-16T04:12:37;15.27;;;8.07;;
74908;SDS011;63468;52.058;4.824;2023-04-16T04:15:03;16.88;;;8.55;;
74908;SDS011;63468;52.058;4.824;2023-04-16T04:17:29;20.33;;;8.50;;
74908;SDS011;63468;52.058;4.824;2023-04-16T04:19:54;22.30;;;10.77;;
74908;SDS011;63468;52.058;4.824;2023-04-16T04:22:19;17.02;;;9.45;;
74908;SDS011;63468;52.058;4.824;2023-04-16T04:24:45;17.30;;;9.60;;
74908;SDS011;63468;52.058;4.824;2023-04-16T04:27:10;18.52;;;11.07;;
74908;SDS011;63468;52.058;4.824;2023-04-16T04:29:35;18.77;;;10.15;;
74908;SDS011;63468;52.058;4.824;2023-04-16T04:32:01;20.42;;;8.77;;
74908;SDS011;63468;52.058;4.824;2023-04-16T04:34:26;21.95;;;9.57;;
74908;SDS011;63468;52.058;4.824;2023-04-16T04:36:51;17.30;;;9.45;;
74908;SDS011;63468;52.058;4.824;2023-04-16T04:39:16;18.48;;;8.93;;
74908;SDS011;63468;52.058;4.824;2023-04-16T04:41:44;22.02;;;9.60;;
74908;SDS011;63468;52.058;4.824;2023-04-16T04:44:09;19.88;;;9.23;;
74908;SDS011;63468;52.058;4.824;2023-04-16T04:46:35;24.58;;;10.13;;
74908;SDS011;63468;52.058;4.824;2023-04-16T04:49:00;21.17;;;11.70;;
74908;SDS011;63468;52.058;4.824;2023-04-16T04:51:25;20.15;;;10.05;;
74908;SDS011;63468;52.058;4.824;2023-04-16T04:53:51;22.83;;;11.45;;
74908;SDS011;63468;52.058;4.824;2023-04-16T04:56:16;24.60;;;10.80;;
74908;SDS011;63468;52.058;4.824;2023-04-16T04:58:41;25.02;;;11.73;;
74908;SDS011;63468;52.058;4.824;2023-04-16T05:01:07;27.42;;;11.65;;
74908;SDS011;63468;52.058;4.824;2023-04-16T05:03:32;21.27;;;10.50;;
74908;SDS011;63468;52.058;4.824;2023-04-16T05:05:57;25.92;;;11.40;;
74908;SDS011;63468;52.058;4.824;2023-04-16T05:08:22;28.73;;;10.82;;
74908;SDS011;63468;52.058;4.824;2023-04-16T05:10:48;19.10;;;10.63;;
74908;SDS011;63468;52.058;4.824;2023-04-16T05:13:13;37.13;;;12.23;;
74908;SDS011;63468;52.058;4.824;2023-04-16T05:15:38;26.05;;;11.45;;
74908;SDS011;63468;52.058;4.824;2023-04-16T05:18:04;20.08;;;12.00;;
74908;SDS011;63468;52.058;4.824;2023-04-16T05:20:30;33.88;;;11.35;;
74908;SDS011;63468;52.058;4.824;2023-04-16T05:22:55;20.75;;;11.43;;
74908;SDS011;63468;52.058;4.824;2023-04-16T05:25:20;23.05;;;10.65;;
74908;SDS011;63468;52.058;4.824;2023-04-16T05:27:46;26.15;;;11.88;;
74908;SDS011;63468;52.058;4.824;2023-04-16T05:30:11;26.58;;;13.70;;
74908;SDS011;63468;52.058;4.824;2023-04-16T05:32:37;27.05;;;13.50;;
74908;SDS011;63468;52.058;4.824;2023-04-16T05:35:03;25.23;;;12.43;;
74908;SDS011;63468;52.058;4.824;2023-04-16T05:37:29;25.73;;;11.32;;
74908;SDS011;63468;52.058;4.824;2023-04-16T05:39:54;24.65;;;10.90;;
74908;SDS011;63468;52.058;4.824;2023-04-16T05:42:19;26.67;;;11.45;;
74908;SDS011;63468;52.058;4.824;2023-04-16T05:44:45;23.75;;;11.13;;
74908;SDS011;63468;52.058;4.824;2023-04-16T05:47:10;26.60;;;12.35;;
74908;SDS011;63468;52.058;4.824;2023-04-16T05:49:35;21.70;;;11.30;;
74908;SDS011;63468;52.058;4.824;2023-04-16T05:52:01;21.38;;;11.07;;
74908;SDS011;63468;52.058;4.824;2023-04-16T05:54:27;23.60;;;10.48;;
74908;SDS011;63468;52.058;4.824;2023-04-16T05:56:53;22.77;;;10.98;;
74908;SDS011;63468;52.058;4.824;2023-04-16T05:59:18;24.00;;;10.13;;
74908;SDS011;63468;52.058;4.824;2023-04-16T06:01:43;30.02;;;11.55;;
74908;SDS011;63468;52.058;4.824;2023-04-16T06:04:09;29.25;;;12.73;;
74908;SDS011;63468;52.058;4.824;2023-04-16T06:06:34;24.92;;;11.38;;
74908;SDS011;63468;52.058;4.824;2023-04-16T06:09:01;28.17;;;11.77;;
74908;SDS011;63468;52.058;4.824;2023-04-16T06:11:27;16.27;;;9.55;;
74908;SDS011;63468;52.058;4.824;2023-04-16T06:13:53;29.27;;;12.40;;
74908;SDS011;63468;52.058;4.824;2023-04-16T06:16:19;20.58;;;12.15;;
74908;SDS011;63468;52.058;4.824;2023-04-16T06:18:44;31.58;;;15.95;;
74908;SDS011;63468;52.058;4.824;2023-04-16T06:21:09;23.63;;;12.35;;
74908;SDS011;63468;52.058;4.824;2023-04-16T06:23:35;20.67;;;12.45;;
74908;SDS011;63468;52.058;4.824;2023-04-16T06:26:00;40.92;;;12.35;;
74908;SDS011;63468;52.058;4.824;2023-04-16T06:28:25;32.47;;;12.07;;
74908;SDS011;63468;52.058;4.824;2023-04-16T06:30:51;21.50;;;11.68;;
74908;SDS011;63468;52.058;4.824;2023-04-16T06:33:16;28.42;;;10.57;;
74908;SDS011;63468;52.058;4.824;2023-04-16T06:35:41;25.90;;;10.57;;
74908;SDS011;63468;52.058;4.824;2023-04-16T06:38:07;23.50;;;11.07;;
74908;SDS011;63468;52.058;4.824;2023-04-16T06:40:32;23.65;;;9.98;;
74908;SDS011;63468;52.058;4.824;2023-04-16T06:42:57;23.23;;;11.88;;
74908;SDS011;63468;52.058;4.824;2023-04-16T06:45:23;27.58;;;12.68;;
74908;SDS011;63468;52.058;4.824;2023-04-16T06:47:48;26.58;;;12.48;;
74908;SDS011;63468;52.058;4.824;2023-04-16T06:50:15;23.45;;;11.45;;
74908;SDS011;63468;52.058;4.824;2023-04-16T06:52:40;24.83;;;13.38;;
74908;SDS011;63468;52.058;4.824;2023-04-16T06:55:05;24.92;;;13.88;;
74908;SDS011;63468;52.058;4.824;2023-04-16T06:57:33;25.33;;;13.27;;
74908;SDS011;63468;52.058;4.824;2023-04-16T06:59:59;25.70;;;14.35;;
74908;SDS011;63468;52.058;4.824;2023-04-16T07:02:24;30.83;;;13.95;;
74908;SDS011;63468;52.058;4.824;2023-04-16T07:04:50;29.17;;;14.50;;
74908;SDS011;63468;52.058;4.824;2023-04-16T07:07:16;29.50;;;15.00;;
74908;SDS011;63468;52.058;4.824;2023-04-16T07:09:41;28.70;;;13.88;;
74908;SDS011;63468;52.058;4.824;2023-04-16T07:12:07;31.60;;;13.85;;
74908;SDS011;63468;52.058;4.824;2023-04-16T07:14:32;33.20;;;14.30;;
74908;SDS011;63468;52.058;4.824;2023-04-16T07:16:57;27.33;;;15.75;;
74908;SDS011;63468;52.058;4.824;2023-04-16T07:19:23;29.05;;;17.52;;
74908;SDS011;63468;52.058;4.824;2023-04-16T07:21:48;28.90;;;16.00;;
74908;SDS011;63468;52.058;4.824;2023-04-16T07:24:13;29.90;;;14.65;;
74908;SDS011;63468;52.058;4.824;2023-04-16T07:26:38;32.20;;;14.93;;
74908;SDS011;63468;52.058;4.824;2023-04-16T07:29:04;29.98;;;14.60;;
74908;SDS011;63468;52.058;4.824;2023-04-16T07:31:29;28.58;;;15.05;;
74908;SDS011;63468;52.058;4.824;2023-04-16T07:33:55;29.60;;;13.68;;
74908;SDS011;63468;52.058;4.824;2023-04-16T07:36:20;28.40;;;13.55;;
74908;SDS011;63468;52.058;4.824;2023-04-16T07:38:45;26.30;;;13.70;;
74908;SDS011;63468;52.058;4.824;2023-04-16T07:41:11;29.50;;;13.15;;
74908;SDS011;63468;52.058;4.824;2023-04-16T07:43:37;28.60;;;14.90;;
74908;SDS011;63468;52.058;4.824;2023-04-16T07:46:02;29.65;;;13.70;;
74908;SDS011;63468;52.058;4.824;2023-04-16T07:48:27;28.08;;;14.20;;
74908;SDS011;63468;52.058;4.824;2023-04-16T07:50:52;28.13;;;13.18;;
74908;SDS011;63468;52.058;4.824;2023-04-16T07:53:18;24.73;;;12.15;;
74908;SDS011;63468;52.058;4.824;2023-04-16T07:55:43;25.08;;;12.90;;
74908;SDS011;63468;52.058;4.824;2023-04-16T07:58:09;26.02;;;14.60;;
74908;SDS011;63468;52.058;4.824;2023-04-16T08:00:34;23.20;;;13.95;;
74908;SDS011;63468;52.058;4.824;2023-04-16T08:03:00;23.75;;;13.57;;
74908;SDS011;63468;52.058;4.824;2023-04-16T08:05:25;21.55;;;14.43;;
74908;SDS011;63468;52.058;4.824;2023-04-16T08:07:50;26.75;;;13.05;;
74908;SDS011;63468;52.058;4.824;2023-04-16T08:10:15;24.52;;;12.50;;
74908;SDS011;63468;52.058;4.824;2023-04-16T08:12:41;25.15;;;12.57;;
74908;SDS011;63468;52.058;4.824;2023-04-16T08:15:06;25.00;;;12.85;;
74908;SDS011;63468;52.058;4.824;2023-04-16T08:17:32;29.80;;;13.93;;
74908;SDS011;63468;52.058;4.824;2023-04-16T08:19:58;23.00;;;12.63;;
74908;SDS011;63468;52.058;4.824;2023-04-16T08:22:24;23.30;;;12.20;;
74908;SDS011;63468;52.058;4.824;2023-04-16T08:24:50;30.58;;;13.38;;
74908;SDS011;63468;52.058;4.824;2023-04-16T08:27:15;21.42;;;12.48;;
74908;SDS011;63468;52.058;4.824;2023-04-16T08:29:41;28.13;;;12.10;;
74908;SDS011;63468;52.058;4.824;2023-04-16T08:32:06;30.70;;;13.63;;
74908;SDS011;63468;52.058;4.824;2023-04-16T08:34:33;30.15;;;14.02;;
74908;SDS011;63468;52.058;4.824;2023-04-16T08:36:58;28.02;;;12.85;;
74908;SDS011;63468;52.058;4.824;2023-04-16T08:39:24;26.98;;;14.65;;
74908;SDS011;63468;52.058;4.824;2023-04-16T08:41:49;31.33;;;14.57;;
74908;SDS011;63468;52.058;4.824;2023-04-16T08:44:20;23.65;;;13.90;;
74908;SDS011;63468;52.058;4.824;2023-04-16T08:46:51;30.25;;;13.00;;
74908;SDS011;63468;52.058;4.824;2023-04-16T08:49:21;23.55;;;13.18;;
74908;SDS011;63468;52.058;4.824;2023-04-16T08:51:54;22.60;;;12.70;;
74908;SDS011;63468;52.058;4.824;2023-04-16T08:54:25;26.08;;;12.68;;
74908;SDS011;63468;52.058;4.824;2023-04-16T08:56:57;22.75;;;11.93;;
74908;SDS011;63468;52.058;4.824;2023-04-16T08:59:22;24.90;;;11.77;;
74908;SDS011;63468;52.058;4.824;2023-04-16T09:01:48;23.42;;;11.95;;
74908;SDS011;63468;52.058;4.824;2023-04-16T09:04:16;21.60;;;12.23;;
74908;SDS011;63468;52.058;4.824;2023-04-16T09:06:41;24.52;;;12.20;;
74908;SDS011;63468;52.058;4.824;2023-04-16T09:09:09;25.50;;;12.15;;
74908;SDS011;63468;52.058;4.824;2023-04-16T09:11:35;25.98;;;12.10;;
74908;SDS011;63468;52.058;4.824;2023-04-16T09:14:01;21.02;;;12.07;;
74908;SDS011;63468;52.058;4.824;2023-04-16T09:16:27;20.98;;;11.88;;
74908;SDS011;63468;52.058;4.824;2023-04-16T09:18:57;24.58;;;13.60;;
74908;SDS011;63468;52.058;4.824;2023-04-16T09:21:22;27.98;;;12.77;;
74908;SDS011;63468;52.058;4.824;2023-04-16T09:23:48;25.13;;;13.23;;
74908;SDS011;63468;52.058;4.824;2023-04-16T09:26:13;25.25;;;13.02;;
74908;SDS011;63468;52.058;4.824;2023-04-16T09:28:46;23.98;;;12.25;;
74908;SDS011;63468;52.058;4.824;2023-04-16T09:31:14;30.40;;;14.93;;
74908;SDS011;63468;52.058;4.824;2023-04-16T09:33:41;29.17;;;13.82;;
74908;SDS011;63468;52.058;4.824;2023-04-16T09:36:07;28.15;;;13.30;;
74908;SDS011;63468;52.058;4.824;2023-04-16T09:38:48;25.10;;;13.85;;
74908;SDS011;63468;52.058;4.824;2023-04-16T09:41:14;28.27;;;15.02;;
74908;SDS011;63468;52.058;4.824;2023-04-16T09:43:40;25.95;;;15.80;;
74908;SDS011;63468;52.058;4.824;2023-04-16T09:46:11;31.48;;;14.60;;
74908;SDS011;63468;52.058;4.824;2023-04-16T09:48:37;31.02;;;15.65;;
74908;SDS011;63468;52.058;4.824;2023-04-16T09:51:03;23.15;;;14.00;;
74908;SDS011;63468;52.058;4.824;2023-04-16T09:53:30;30.40;;;13.88;;
74908;SDS011;63468;52.058;4.824;2023-04-16T09:56:00;28.40;;;15.45;;
74908;SDS011;63468;52.058;4.824;2023-04-16T09:58:30;32.97;;;15.40;;
74908;SDS011;63468;52.058;4.824;2023-04-16T10:03:32;28.27;;;15.27;;
74908;SDS011;63468;52.058;4.824;2023-04-16T10:05:59;20.08;;;11.98;;
74908;SDS011;63468;52.058;4.824;2023-04-16T10:08:45;23.58;;;13.57;;
74908;SDS011;63468;52.058;4.824;2023-04-16T10:11:11;24.38;;;12.52;;
74908;SDS011;63468;52.058;4.824;2023-04-16T10:13:36;25.83;;;14.50;;
74908;SDS011;63468;52.058;4.824;2023-04-16T10:16:02;27.15;;;13.75;;
74908;SDS011;63468;52.058;4.824;2023-04-16T10:18:27;27.05;;;14.57;;
74908;SDS011;63468;52.058;4.824;2023-04-16T10:20:53;28.60;;;14.63;;
74908;SDS011;63468;52.058;4.824;2023-04-16T10:23:20;24.45;;;14.05;;
74908;SDS011;63468;52.058;4.824;2023-04-16T10:25:46;24.73;;;14.20;;
74908;SDS011;63468;52.058;4.824;2023-04-16T10:28:12;20.05;;;11.50;;
74908;SDS011;63468;52.058;4.824;2023-04-16T10:30:39;27.13;;;13.57;;
74908;SDS011;63468;52.058;4.824;2023-04-16T10:33:06;24.77;;;12.70;;
74908;SDS011;63468;52.058;4.824;2023-04-16T10:35:32;24.55;;;13.98;;
74908;SDS011;63468;52.058;4.824;2023-04-16T10:38:12;21.73;;;12.35;;
74908;SDS011;63468;52.058;4.824;2023-04-16T10:40:49;24.15;;;11.70;;
74908;SDS011;63468;52.058;4.824;2023-04-16T10:43:17;20.02;;;13.20;;
74908;SDS011;63468;52.058;4.824;2023-04-16T10:45:46;20.83;;;12.13;;
74908;SDS011;63468;52.058;4.824;2023-04-16T10:48:11;22.05;;;12.60;;
74908;SDS011;63468;52.058;4.824;2023-04-16T10:50:38;21.92;;;12.10;;
74908;SDS011;63468;52.058;4.824;2023-04-16T10:53:18;24.95;;;13.45;;
74908;SDS011;63468;52.058;4.824;2023-04-16T10:58:31;20.38;;;13.05;;
74908;SDS011;63468;52.058;4.824;2023-04-16T11:01:00;24.08;;;14.70;;
74908;SDS011;63468;52.058;4.824;2023-04-16T11:03:40;27.88;;;14.13;;
74908;SDS011;63468;52.058;4.824;2023-04-16T11:06:12;26.00;;;15.23;;
74908;SDS011;63468;52.058;4.824;2023-04-16T11:08:40;29.83;;;14.32;;
74908;SDS011;63468;52.058;4.824;2023-04-16T11:11:07;26.25;;;13.48;;
74908;SDS011;63468;52.058;4.824;2023-04-16T11:13:34;26.42;;;13.60;;
74908;SDS011;63468;52.058;4.824;2023-04-16T11:16:00;26.48;;;13.55;;
74908;SDS011;63468;52.058;4.824;2023-04-16T11:18:26;24.35;;;13.30;;
74908;SDS011;63468;52.058;4.824;2023-04-16T11:20:51;25.63;;;13.80;;
74908;SDS011;63468;52.058;4.824;2023-04-16T11:23:16;25.13;;;12.77;;
74908;SDS011;63468;52.058;4.824;2023-04-16T11:25:42;25.48;;;14.48;;
74908;SDS011;63468;52.058;4.824;2023-04-16T11:28:07;24.05;;;14.07;;
74908;SDS011;63468;52.058;4.824;2023-04-16T11:30:33;27.15;;;14.50;;
74908;SDS011;63468;52.058;4.824;2023-04-16T11:33:03;26.83;;;13.45;;
74908;SDS011;63468;52.058;4.824;2023-04-16T11:35:29;28.85;;;15.10;;
74908;SDS011;63468;52.058;4.824;2023-04-16T11:37:55;28.50;;;15.02;;
74908;SDS011;63468;52.058;4.824;2023-04-16T11:40:21;28.73;;;14.25;;
74908;SDS011;63468;52.058;4.824;2023-04-16T11:42:46;23.55;;;13.25;;
74908;SDS011;63468;52.058;4.824;2023-04-16T11:45:12;25.70;;;13.88;;
74908;SDS011;63468;52.058;4.824;2023-04-16T11:47:41;23.88;;;12.68;;
74908;SDS011;63468;52.058;4.824;2023-04-16T11:52:44;25.55;;;14.85;;
74908;SDS011;63468;52.058;4.824;2023-04-16T11:55:10;24.00;;;14.38;;
74908;SDS011;63468;52.058;4.824;2023-04-16T11:57:36;28.67;;;15.23;;
74908;SDS011;63468;52.058;4.824;2023-04-16T12:00:02;21.88;;;14.50;;
74908;SDS011;63468;52.058;4.824;2023-04-16T12:02:35;28.52;;;15.55;;
74908;SDS011;63468;52.058;4.824;2023-04-16T12:07:55;25.85;;;13.20;;
74908;SDS011;63468;52.058;4.824;2023-04-16T12:10:21;23.20;;;13.80;;
74908;SDS011;63468;52.058;4.824;2023-04-16T12:12:46;26.02;;;13.55;;
74908;SDS011;63468;52.058;4.824;2023-04-16T12:15:12;23.17;;;13.02;;
74908;SDS011;63468;52.058;4.824;2023-04-16T12:17:37;20.30;;;12.40;;
74908;SDS011;63468;52.058;4.824;2023-04-16T12:20:03;25.67;;;12.90;;
74908;SDS011;63468;52.058;4.824;2023-04-16T12:22:37;25.15;;;13.38;;
74908;SDS011;63468;52.058;4.824;2023-04-16T12:25:04;21.50;;;11.77;;
74908;SDS011;63468;52.058;4.824;2023-04-16T12:27:49;21.92;;;12.45;;
74908;SDS011;63468;52.058;4.824;2023-04-16T12:30:16;28.52;;;13.52;;
74908;SDS011;63468;52.058;4.824;2023-04-16T12:32:43;28.40;;;14.27;;
74908;SDS011;63468;52.058;4.824;2023-04-16T12:35:10;22.70;;;13.38;;
74908;SDS011;63468;52.058;4.824;2023-04-16T12:37:36;24.42;;;14.27;;
74908;SDS011;63468;52.058;4.824;2023-04-16T12:40:02;23.65;;;14.23;;
74908;SDS011;63468;52.058;4.824;2023-04-16T12:42:29;23.65;;;12.02;;
74908;SDS011;63468;52.058;4.824;2023-04-16T12:44:59;22.85;;;12.88;;
74908;SDS011;63468;52.058;4.824;2023-04-16T12:47:25;24.85;;;13.05;;
74908;SDS011;63468;52.058;4.824;2023-04-16T12:49:50;24.90;;;12.98;;
74908;SDS011;63468;52.058;4.824;2023-04-16T12:52:16;26.05;;;12.68;;
74908;SDS011;63468;52.058;4.824;2023-04-16T12:54:41;24.65;;;12.60;;
74908;SDS011;63468;52.058;4.824;2023-04-16T12:57:06;25.35;;;11.95;;
74908;SDS011;63468;52.058;4.824;2023-04-16T12:59:32;19.33;;;11.55;;
74908;SDS011;63468;52.058;4.824;2023-04-16T13:01:59;24.00;;;12.80;;
74908;SDS011;63468;52.058;4.824;2023-04-16T13:04:24;21.10;;;12.50;;
74908;SDS011;63468;52.058;4.824;2023-04-16T13:06:50;22.10;;;13.27;;
74908;SDS011;63468;52.058;4.824;2023-04-16T13:09:15;23.60;;;13.13;;
74908;SDS011;63468;52.058;4.824;2023-04-16T13:11:42;21.88;;;12.82;;
74908;SDS011;63468;52.058;4.824;2023-04-16T13:14:07;22.13;;;13.02;;
74908;SDS011;63468;52.058;4.824;2023-04-16T13:16:32;25.60;;;13.10;;
74908;SDS011;63468;52.058;4.824;2023-04-16T13:18:57;23.58;;;13.93;;
74908;SDS011;63468;52.058;4.824;2023-04-16T13:21:23;27.02;;;13.50;;
74908;SDS011;63468;52.058;4.824;2023-04-16T13:23:48;29.35;;;13.25;;
74908;SDS011;63468;52.058;4.824;2023-04-16T13:26:13;27.90;;;13.07;;
74908;SDS011;63468;52.058;4.824;2023-04-16T13:28:40;25.67;;;13.52;;
74908;SDS011;63468;52.058;4.824;2023-04-16T13:31:05;23.60;;;14.02;;
74908;SDS011;63468;52.058;4.824;2023-04-16T13:33:30;29.08;;;15.35;;
74908;SDS011;63468;52.058;4.824;2023-04-16T13:35:56;24.95;;;12.88;;
74908;SDS011;63468;52.058;4.824;2023-04-16T13:38:21;23.10;;;13.45;;
74908;SDS011;63468;52.058;4.824;2023-04-16T13:40:46;22.13;;;11.80;;
74908;SDS011;63468;52.058;4.824;2023-04-16T13:43:12;27.38;;;12.93;;
74908;SDS011;63468;52.058;4.824;2023-04-16T13:45:37;23.75;;;13.88;;
74908;SDS011;63468;52.058;4.824;2023-04-16T13:48:03;24.30;;;13.88;;
74908;SDS011;63468;52.058;4.824;2023-04-16T13:50:29;26.50;;;13.00;;
74908;SDS011;63468;52.058;4.824;2023-04-16T13:52:54;26.10;;;12.77;;
74908;SDS011;63468;52.058;4.824;2023-04-16T13:55:20;25.38;;;14.23;;
74908;SDS011;63468;52.058;4.824;2023-04-16T13:57:46;25.20;;;15.88;;
74908;SDS011;63468;52.058;4.824;2023-04-16T14:00:13;29.05;;;16.00;;
74908;SDS011;63468;52.058;4.824;2023-04-16T14:02:40;25.40;;;13.95;;
74908;SDS011;63468;52.058;4.824;2023-04-16T14:05:06;27.48;;;15.70;;
74908;SDS011;63468;52.058;4.824;2023-04-16T14:07:31;28.75;;;16.55;;
74908;SDS011;63468;52.058;4.824;2023-04-16T14:09:57;18.42;;;12.07;;
74908;SDS011;63468;52.058;4.824;2023-04-16T14:12:22;22.98;;;13.50;;
74908;SDS011;63468;52.058;4.824;2023-04-16T14:14:47;22.20;;;12.55;;
74908;SDS011;63468;52.058;4.824;2023-04-16T14:17:13;23.10;;;12.32;;
74908;SDS011;63468;52.058;4.824;2023-04-16T14:19:38;24.35;;;13.10;;
74908;SDS011;63468;52.058;4.824;2023-04-16T14:22:03;24.38;;;13.40;;
74908;SDS011;63468;52.058;4.824;2023-04-16T14:24:29;27.65;;;14.95;;
74908;SDS011;63468;52.058;4.824;2023-04-16T14:26:54;24.02;;;12.90;;
74908;SDS011;63468;52.058;4.824;2023-04-16T14:29:19;28.90;;;16.08;;
74908;SDS011;63468;52.058;4.824;2023-04-16T14:31:45;30.25;;;16.73;;